KBIX

Keesler AFB Airport

Biloxi, Mississippi, USA
METAR KBIX 160556Z AUTO 34003KT 10SM CLR 26/24 A3002 RMK AO2 LTG DSNT S SLP168 T02550235 10268 20248 403400248 58004 $
Observed Flight Rules
Jul-16 @ 05:56 UTC (59 minutes ago) Visual Flight Rules
Wind Visibility Clouds
340° at 3 knots 10 miles
  • Clear skies
Temperatures Readings
Current 26°C / 79°F
Dewpoint 24°C / 75°F
Humidity 89%
Altimeter 30.02" Hg
Pressure 1016.8 hPa
Elevation 10
METAR KBIX 160556Z AUTO 34003KT 10SM CLR 26/24 A3002 RMK AO2 LTG DSNT S SLP168 T02550235 10268 20248 403400248 58004 $
Observed Flight Rules
Jul-16 @ 05:56 UTC
(59 minutes ago)
VFR
Wind Visibility
340° at 3 knots 10 miles
Clouds
  • Clear skies
Temperature Dewpoint
26°C / 79°F 24°C / 75°F
Humidity Altimeter Pressure
89% 30.02" Hg 1016.8 hPa